Terminal Aerodrome Forecast
Issued by NWS

Home | Current Version | Previous Version | Text Only | Print | Product List | Glossary On
Versions: 1 2 3 4 5 6 7 8 9 10 11 12 13 14 15 16 17 18 19 20 21 22 23
929
FTUS43 KDLH 260921 AAB
TAFHIB
TAF AMD
KHIB 260921Z 2609/2706 14005KT P6SM VCSH SCT007 OVC035
     FM261500 16008KT 5SM BR VCSH SCT007 OVC025
     FM261800 19008KT P6SM OVC025
     FM262300 20007KT P6SM VCSH BKN050=

USA.gov is the U.S. government's official web portal to all federal, state and local government web resources and services.